sensor_id;sensor_type;location;lat;lon;timestamp;P1;durP1;ratioP1;P2;durP2;ratioP2
18789;SDS011;9523;42.650;23.386;2023-02-28T00:01:05;29.43;;;14.50;;
18789;SDS011;9523;42.650;23.386;2023-02-28T00:03:32;29.67;;;14.77;;
18789;SDS011;9523;42.650;23.386;2023-02-28T00:06:00;27.07;;;13.87;;
18789;SDS011;9523;42.650;23.386;2023-02-28T00:08:28;25.67;;;14.20;;
18789;SDS011;9523;42.650;23.386;2023-02-28T00:10:55;29.23;;;14.07;;
18789;SDS011;9523;42.650;23.386;2023-02-28T00:13:22;29.97;;;15.43;;
18789;SDS011;9523;42.650;23.386;2023-02-28T00:15:59;30.67;;;14.87;;
18789;SDS011;9523;42.650;23.386;2023-02-28T00:18:26;27.33;;;15.23;;
18789;SDS011;9523;42.650;23.386;2023-02-28T00:20:54;31.60;;;14.77;;
18789;SDS011;9523;42.650;23.386;2023-02-28T00:23:20;31.40;;;15.57;;
18789;SDS011;9523;42.650;23.386;2023-02-28T00:25:47;31.07;;;16.23;;
18789;SDS011;9523;42.650;23.386;2023-02-28T00:28:14;30.10;;;14.67;;
18789;SDS011;9523;42.650;23.386;2023-02-28T00:33:16;30.17;;;16.00;;
18789;SDS011;9523;42.650;23.386;2023-02-28T00:35:46;27.33;;;15.57;;
18789;SDS011;9523;42.650;23.386;2023-02-28T00:38:13;28.83;;;16.43;;
18789;SDS011;9523;42.650;23.386;2023-02-28T00:40:40;28.97;;;16.00;;
18789;SDS011;9523;42.650;23.386;2023-02-28T00:43:07;32.03;;;16.10;;
18789;SDS011;9523;42.650;23.386;2023-02-28T00:45:34;32.67;;;17.40;;
18789;SDS011;9523;42.650;23.386;2023-02-28T00:48:01;28.67;;;15.37;;
18789;SDS011;9523;42.650;23.386;2023-02-28T00:50:30;30.07;;;16.40;;
18789;SDS011;9523;42.650;23.386;2023-02-28T00:53:00;27.70;;;15.77;;
18789;SDS011;9523;42.650;23.386;2023-02-28T00:55:27;32.63;;;16.13;;
18789;SDS011;9523;42.650;23.386;2023-02-28T00:57:54;32.77;;;17.00;;
18789;SDS011;9523;42.650;23.386;2023-02-28T01:00:21;27.20;;;15.70;;
18789;SDS011;9523;42.650;23.386;2023-02-28T01:02:48;29.53;;;14.70;;
18789;SDS011;9523;42.650;23.386;2023-02-28T01:05:15;28.53;;;15.97;;
18789;SDS011;9523;42.650;23.386;2023-02-28T01:07:43;30.33;;;15.10;;
18789;SDS011;9523;42.650;23.386;2023-02-28T01:10:10;26.47;;;14.43;;
18789;SDS011;9523;42.650;23.386;2023-02-28T01:12:37;33.27;;;16.63;;
18789;SDS011;9523;42.650;23.386;2023-02-28T01:15:09;33.23;;;17.07;;
18789;SDS011;9523;42.650;23.386;2023-02-28T01:17:39;28.00;;;16.10;;
18789;SDS011;9523;42.650;23.386;2023-02-28T01:20:06;31.40;;;16.97;;
18789;SDS011;9523;42.650;23.386;2023-02-28T01:22:34;29.27;;;16.20;;
18789;SDS011;9523;42.650;23.386;2023-02-28T01:25:03;31.57;;;15.97;;
18789;SDS011;9523;42.650;23.386;2023-02-28T01:27:30;30.57;;;17.30;;
18789;SDS011;9523;42.650;23.386;2023-02-28T01:29:57;32.30;;;17.23;;
18789;SDS011;9523;42.650;23.386;2023-02-28T01:32:24;30.43;;;16.20;;
18789;SDS011;9523;42.650;23.386;2023-02-28T01:34:51;112.60;;;51.07;;
18789;SDS011;9523;42.650;23.386;2023-02-28T01:37:18;38.33;;;18.97;;
18789;SDS011;9523;42.650;23.386;2023-02-28T01:39:44;31.13;;;17.37;;
18789;SDS011;9523;42.650;23.386;2023-02-28T01:42:13;36.33;;;17.43;;
18789;SDS011;9523;42.650;23.386;2023-02-28T01:45:00;32.40;;;17.97;;
18789;SDS011;9523;42.650;23.386;2023-02-28T01:47:29;35.67;;;17.57;;
18789;SDS011;9523;42.650;23.386;2023-02-28T01:49:58;35.43;;;17.17;;
18789;SDS011;9523;42.650;23.386;2023-02-28T01:52:27;32.63;;;17.07;;
18789;SDS011;9523;42.650;23.386;2023-02-28T01:54:55;32.80;;;17.77;;
18789;SDS011;9523;42.650;23.386;2023-02-28T01:57:27;32.63;;;17.77;;
18789;SDS011;9523;42.650;23.386;2023-02-28T02:00:03;34.53;;;19.57;;
18789;SDS011;9523;42.650;23.386;2023-02-28T02:02:34;40.93;;;19.17;;
18789;SDS011;9523;42.650;23.386;2023-02-28T02:05:04;34.83;;;17.90;;
18789;SDS011;9523;42.650;23.386;2023-02-28T02:07:33;37.00;;;18.07;;
18789;SDS011;9523;42.650;23.386;2023-02-28T02:10:04;36.27;;;18.23;;
18789;SDS011;9523;42.650;23.386;2023-02-28T02:12:38;35.57;;;17.77;;
18789;SDS011;9523;42.650;23.386;2023-02-28T02:15:20;34.07;;;18.47;;
18789;SDS011;9523;42.650;23.386;2023-02-28T02:17:51;38.07;;;19.23;;
18789;SDS011;9523;42.650;23.386;2023-02-28T02:20:42;37.23;;;18.57;;
18789;SDS011;9523;42.650;23.386;2023-02-28T02:29:42;44.23;;;20.47;;
18789;SDS011;9523;42.650;23.386;2023-02-28T02:32:28;41.13;;;20.23;;
18789;SDS011;9523;42.650;23.386;2023-02-28T02:35:17;37.20;;;18.83;;
18789;SDS011;9523;42.650;23.386;2023-02-28T02:37:52;40.43;;;20.43;;
18789;SDS011;9523;42.650;23.386;2023-02-28T02:40:25;47.33;;;20.13;;
18789;SDS011;9523;42.650;23.386;2023-02-28T02:42:59;41.40;;;20.33;;
18789;SDS011;9523;42.650;23.386;2023-02-28T02:45:31;42.87;;;20.33;;
18789;SDS011;9523;42.650;23.386;2023-02-28T02:48:01;40.60;;;19.67;;
18789;SDS011;9523;42.650;23.386;2023-02-28T02:50:32;39.53;;;19.23;;
18789;SDS011;9523;42.650;23.386;2023-02-28T02:53:03;40.77;;;20.17;;
18789;SDS011;9523;42.650;23.386;2023-02-28T02:55:34;39.37;;;19.67;;
18789;SDS011;9523;42.650;23.386;2023-02-28T02:58:04;39.07;;;20.07;;
18789;SDS011;9523;42.650;23.386;2023-02-28T03:00:35;37.80;;;19.83;;
18789;SDS011;9523;42.650;23.386;2023-02-28T03:03:05;36.30;;;19.13;;
18789;SDS011;9523;42.650;23.386;2023-02-28T03:05:41;34.90;;;18.47;;
18789;SDS011;9523;42.650;23.386;2023-02-28T03:08:12;36.73;;;18.70;;
18789;SDS011;9523;42.650;23.386;2023-02-28T03:10:40;37.27;;;19.80;;
18789;SDS011;9523;42.650;23.386;2023-02-28T03:13:12;37.30;;;18.20;;
18789;SDS011;9523;42.650;23.386;2023-02-28T03:15:58;33.43;;;18.03;;
18789;SDS011;9523;42.650;23.386;2023-02-28T03:18:47;33.27;;;18.07;;
18789;SDS011;9523;42.650;23.386;2023-02-28T03:21:27;32.63;;;17.93;;
18789;SDS011;9523;42.650;23.386;2023-02-28T03:24:02;36.53;;;18.10;;
18789;SDS011;9523;42.650;23.386;2023-02-28T03:26:33;36.47;;;19.20;;
18789;SDS011;9523;42.650;23.386;2023-02-28T03:29:03;37.33;;;19.27;;
18789;SDS011;9523;42.650;23.386;2023-02-28T03:31:38;34.97;;;18.70;;
18789;SDS011;9523;42.650;23.386;2023-02-28T03:34:11;38.70;;;20.40;;
18789;SDS011;9523;42.650;23.386;2023-02-28T03:36:45;39.20;;;19.70;;
18789;SDS011;9523;42.650;23.386;2023-02-28T03:39:16;35.53;;;18.53;;
18789;SDS011;9523;42.650;23.386;2023-02-28T03:41:48;40.73;;;19.57;;
18789;SDS011;9523;42.650;23.386;2023-02-28T03:44:20;40.50;;;20.13;;
18789;SDS011;9523;42.650;23.386;2023-02-28T03:46:51;43.80;;;21.13;;
18789;SDS011;9523;42.650;23.386;2023-02-28T03:49:24;39.90;;;20.10;;
18789;SDS011;9523;42.650;23.386;2023-02-28T03:51:59;41.63;;;21.23;;
18789;SDS011;9523;42.650;23.386;2023-02-28T03:54:29;38.83;;;19.97;;
18789;SDS011;9523;42.650;23.386;2023-02-28T03:57:02;44.27;;;20.93;;
18789;SDS011;9523;42.650;23.386;2023-02-28T03:59:34;40.03;;;20.43;;
18789;SDS011;9523;42.650;23.386;2023-02-28T04:02:05;41.13;;;20.23;;
18789;SDS011;9523;42.650;23.386;2023-02-28T04:04:33;44.37;;;20.20;;
18789;SDS011;9523;42.650;23.386;2023-02-28T04:07:03;42.57;;;20.00;;
18789;SDS011;9523;42.650;23.386;2023-02-28T04:09:31;41.87;;;18.93;;
18789;SDS011;9523;42.650;23.386;2023-02-28T04:11:58;41.37;;;21.10;;
18789;SDS011;9523;42.650;23.386;2023-02-28T04:14:25;42.53;;;21.03;;
18789;SDS011;9523;42.650;23.386;2023-02-28T04:16:52;48.93;;;21.50;;
18789;SDS011;9523;42.650;23.386;2023-02-28T04:19:19;43.53;;;21.70;;
18789;SDS011;9523;42.650;23.386;2023-02-28T04:21:46;38.20;;;19.40;;
18789;SDS011;9523;42.650;23.386;2023-02-28T04:24:17;39.00;;;19.43;;
18789;SDS011;9523;42.650;23.386;2023-02-28T04:26:45;36.87;;;18.07;;
18789;SDS011;9523;42.650;23.386;2023-02-28T04:29:13;40.63;;;20.40;;
18789;SDS011;9523;42.650;23.386;2023-02-28T04:31:46;39.27;;;19.20;;
18789;SDS011;9523;42.650;23.386;2023-02-28T04:34:13;59.30;;;19.87;;
18789;SDS011;9523;42.650;23.386;2023-02-28T04:36:40;38.97;;;18.23;;
18789;SDS011;9523;42.650;23.386;2023-02-28T04:39:07;33.60;;;16.80;;
18789;SDS011;9523;42.650;23.386;2023-02-28T04:41:37;37.97;;;17.70;;
18789;SDS011;9523;42.650;23.386;2023-02-28T04:44:04;43.17;;;18.97;;
18789;SDS011;9523;42.650;23.386;2023-02-28T04:46:31;48.60;;;21.77;;
18789;SDS011;9523;42.650;23.386;2023-02-28T04:48:58;50.60;;;20.93;;
18789;SDS011;9523;42.650;23.386;2023-02-28T04:51:25;49.53;;;22.30;;
18789;SDS011;9523;42.650;23.386;2023-02-28T04:53:52;52.80;;;23.47;;
18789;SDS011;9523;42.650;23.386;2023-02-28T04:56:19;69.73;;;25.53;;
18789;SDS011;9523;42.650;23.386;2023-02-28T04:58:47;65.03;;;27.03;;
18789;SDS011;9523;42.650;23.386;2023-02-28T05:01:17;60.73;;;26.20;;
18789;SDS011;9523;42.650;23.386;2023-02-28T05:03:46;53.53;;;26.73;;
18789;SDS011;9523;42.650;23.386;2023-02-28T05:06:14;56.90;;;26.40;;
18789;SDS011;9523;42.650;23.386;2023-02-28T05:08:41;61.10;;;27.20;;
18789;SDS011;9523;42.650;23.386;2023-02-28T05:11:12;60.47;;;27.20;;
18789;SDS011;9523;42.650;23.386;2023-02-28T05:13:41;68.67;;;29.07;;
18789;SDS011;9523;42.650;23.386;2023-02-28T05:16:09;63.80;;;27.50;;
18789;SDS011;9523;42.650;23.386;2023-02-28T05:18:36;64.13;;;26.70;;
18789;SDS011;9523;42.650;23.386;2023-02-28T05:21:03;58.43;;;26.47;;
18789;SDS011;9523;42.650;23.386;2023-02-28T05:23:30;63.93;;;26.80;;
18789;SDS011;9523;42.650;23.386;2023-02-28T05:25:57;73.33;;;26.40;;
18789;SDS011;9523;42.650;23.386;2023-02-28T05:28:24;69.43;;;26.77;;
18789;SDS011;9523;42.650;23.386;2023-02-28T05:30:51;68.10;;;26.40;;
18789;SDS011;9523;42.650;23.386;2023-02-28T05:33:19;54.50;;;24.07;;
18789;SDS011;9523;42.650;23.386;2023-02-28T05:35:46;50.17;;;23.40;;
18789;SDS011;9523;42.650;23.386;2023-02-28T05:38:13;56.37;;;24.43;;
18789;SDS011;9523;42.650;23.386;2023-02-28T05:40:40;52.50;;;24.80;;
18789;SDS011;9523;42.650;23.386;2023-02-28T05:43:09;58.10;;;23.57;;
18789;SDS011;9523;42.650;23.386;2023-02-28T05:45:37;54.93;;;24.43;;
18789;SDS011;9523;42.650;23.386;2023-02-28T05:48:04;50.50;;;22.73;;
18789;SDS011;9523;42.650;23.386;2023-02-28T05:50:33;49.53;;;23.87;;
18789;SDS011;9523;42.650;23.386;2023-02-28T05:53:00;54.27;;;23.60;;
18789;SDS011;9523;42.650;23.386;2023-02-28T05:55:27;52.47;;;24.83;;
18789;SDS011;9523;42.650;23.386;2023-02-28T05:57:53;49.30;;;24.37;;
18789;SDS011;9523;42.650;23.386;2023-02-28T06:00:21;48.70;;;23.47;;
18789;SDS011;9523;42.650;23.386;2023-02-28T06:02:48;50.37;;;23.60;;
18789;SDS011;9523;42.650;23.386;2023-02-28T06:05:17;47.30;;;23.17;;
18789;SDS011;9523;42.650;23.386;2023-02-28T06:07:45;41.70;;;21.57;;
18789;SDS011;9523;42.650;23.386;2023-02-28T06:10:12;51.33;;;22.30;;
18789;SDS011;9523;42.650;23.386;2023-02-28T06:12:40;46.13;;;21.90;;
18789;SDS011;9523;42.650;23.386;2023-02-28T06:15:09;48.93;;;23.97;;
18789;SDS011;9523;42.650;23.386;2023-02-28T06:17:39;43.20;;;21.60;;
18789;SDS011;9523;42.650;23.386;2023-02-28T06:20:06;40.63;;;20.67;;
18789;SDS011;9523;42.650;23.386;2023-02-28T06:22:34;43.37;;;22.03;;
18789;SDS011;9523;42.650;23.386;2023-02-28T06:25:03;42.10;;;21.07;;
18789;SDS011;9523;42.650;23.386;2023-02-28T06:27:31;43.73;;;21.90;;
18789;SDS011;9523;42.650;23.386;2023-02-28T06:29:58;42.20;;;20.63;;
18789;SDS011;9523;42.650;23.386;2023-02-28T06:32:25;42.53;;;22.83;;
18789;SDS011;9523;42.650;23.386;2023-02-28T06:34:51;42.03;;;22.23;;
18789;SDS011;9523;42.650;23.386;2023-02-28T06:37:19;35.43;;;19.60;;
18789;SDS011;9523;42.650;23.386;2023-02-28T06:39:45;39.93;;;19.70;;
18789;SDS011;9523;42.650;23.386;2023-02-28T06:42:14;32.80;;;18.57;;
18789;SDS011;9523;42.650;23.386;2023-02-28T06:44:41;31.70;;;17.27;;
18789;SDS011;9523;42.650;23.386;2023-02-28T06:47:08;35.23;;;18.30;;
18789;SDS011;9523;42.650;23.386;2023-02-28T06:49:35;34.20;;;17.97;;
18789;SDS011;9523;42.650;23.386;2023-02-28T06:52:04;35.63;;;19.53;;
18789;SDS011;9523;42.650;23.386;2023-02-28T06:54:35;37.70;;;20.20;;
18789;SDS011;9523;42.650;23.386;2023-02-28T06:57:02;41.30;;;22.00;;
18789;SDS011;9523;42.650;23.386;2023-02-28T06:59:31;43.57;;;24.20;;
18789;SDS011;9523;42.650;23.386;2023-02-28T07:01:58;46.93;;;24.83;;
18789;SDS011;9523;42.650;23.386;2023-02-28T07:04:25;46.67;;;23.33;;
18789;SDS011;9523;42.650;23.386;2023-02-28T07:06:52;46.50;;;25.00;;
18789;SDS011;9523;42.650;23.386;2023-02-28T07:09:21;44.10;;;23.43;;
18789;SDS011;9523;42.650;23.386;2023-02-28T07:11:48;43.00;;;23.20;;
18789;SDS011;9523;42.650;23.386;2023-02-28T07:14:15;43.80;;;24.77;;
18789;SDS011;9523;42.650;23.386;2023-02-28T07:16:44;43.43;;;24.30;;
18789;SDS011;9523;42.650;23.386;2023-02-28T07:19:11;47.13;;;24.37;;
18789;SDS011;9523;42.650;23.386;2023-02-28T07:21:38;42.70;;;23.43;;
18789;SDS011;9523;42.650;23.386;2023-02-28T07:24:05;43.23;;;22.57;;
18789;SDS011;9523;42.650;23.386;2023-02-28T07:26:32;41.03;;;22.63;;
18789;SDS011;9523;42.650;23.386;2023-02-28T07:29:00;38.20;;;20.47;;
18789;SDS011;9523;42.650;23.386;2023-02-28T07:31:27;36.83;;;19.37;;
18789;SDS011;9523;42.650;23.386;2023-02-28T07:33:55;37.90;;;18.97;;
18789;SDS011;9523;42.650;23.386;2023-02-28T07:36:22;31.03;;;17.47;;
18789;SDS011;9523;42.650;23.386;2023-02-28T07:38:49;29.37;;;16.87;;
18789;SDS011;9523;42.650;23.386;2023-02-28T07:41:16;31.07;;;17.90;;
18789;SDS011;9523;42.650;23.386;2023-02-28T07:43:44;34.93;;;16.97;;
18789;SDS011;9523;42.650;23.386;2023-02-28T07:46:12;33.87;;;17.63;;
18789;SDS011;9523;42.650;23.386;2023-02-28T07:48:41;30.60;;;16.87;;
18789;SDS011;9523;42.650;23.386;2023-02-28T07:51:10;38.47;;;17.87;;
18789;SDS011;9523;42.650;23.386;2023-02-28T07:53:37;34.20;;;17.70;;
18789;SDS011;9523;42.650;23.386;2023-02-28T07:56:07;34.17;;;16.67;;
18789;SDS011;9523;42.650;23.386;2023-02-28T07:58:35;32.40;;;16.80;;
18789;SDS011;9523;42.650;23.386;2023-02-28T08:01:06;28.30;;;16.00;;
18789;SDS011;9523;42.650;23.386;2023-02-28T08:03:33;34.63;;;16.73;;
18789;SDS011;9523;42.650;23.386;2023-02-28T08:06:01;28.73;;;16.03;;
18789;SDS011;9523;42.650;23.386;2023-02-28T08:08:30;32.00;;;16.37;;
18789;SDS011;9523;42.650;23.386;2023-02-28T08:10:58;29.83;;;16.80;;
18789;SDS011;9523;42.650;23.386;2023-02-28T08:13:26;31.63;;;16.13;;
18789;SDS011;9523;42.650;23.386;2023-02-28T08:15:53;29.40;;;16.10;;
18789;SDS011;9523;42.650;23.386;2023-02-28T08:18:20;30.97;;;16.43;;
18789;SDS011;9523;42.650;23.386;2023-02-28T08:20:48;35.20;;;16.60;;
18789;SDS011;9523;42.650;23.386;2023-02-28T08:23:15;31.07;;;15.63;;
18789;SDS011;9523;42.650;23.386;2023-02-28T08:25:43;32.40;;;15.90;;
18789;SDS011;9523;42.650;23.386;2023-02-28T08:28:10;31.67;;;15.27;;
18789;SDS011;9523;42.650;23.386;2023-02-28T08:30:38;35.53;;;16.63;;
18789;SDS011;9523;42.650;23.386;2023-02-28T08:33:06;24.03;;;15.00;;
18789;SDS011;9523;42.650;23.386;2023-02-28T08:35:35;34.67;;;15.80;;
18789;SDS011;9523;42.650;23.386;2023-02-28T08:38:02;27.03;;;15.03;;
18789;SDS011;9523;42.650;23.386;2023-02-28T08:40:29;24.83;;;15.10;;
18789;SDS011;9523;42.650;23.386;2023-02-28T08:42:58;27.60;;;14.63;;
18789;SDS011;9523;42.650;23.386;2023-02-28T08:45:27;29.97;;;14.50;;
18789;SDS011;9523;42.650;23.386;2023-02-28T08:47:54;30.00;;;15.33;;
18789;SDS011;9523;42.650;23.386;2023-02-28T08:50:21;25.87;;;13.97;;
18789;SDS011;9523;42.650;23.386;2023-02-28T08:52:48;25.07;;;13.67;;
18789;SDS011;9523;42.650;23.386;2023-02-28T08:55:18;24.87;;;13.67;;
18789;SDS011;9523;42.650;23.386;2023-02-28T08:57:45;23.17;;;13.37;;
18789;SDS011;9523;42.650;23.386;2023-02-28T09:00:14;25.97;;;13.40;;
18789;SDS011;9523;42.650;23.386;2023-02-28T09:02:41;21.80;;;12.87;;
18789;SDS011;9523;42.650;23.386;2023-02-28T09:05:08;27.80;;;11.97;;
18789;SDS011;9523;42.650;23.386;2023-02-28T09:07:35;26.43;;;13.73;;
18789;SDS011;9523;42.650;23.386;2023-02-28T09:10:02;25.50;;;13.37;;
18789;SDS011;9523;42.650;23.386;2023-02-28T09:12:32;25.80;;;13.10;;
18789;SDS011;9523;42.650;23.386;2023-02-28T09:15:00;24.40;;;13.63;;
18789;SDS011;9523;42.650;23.386;2023-02-28T09:17:29;24.70;;;13.03;;
18789;SDS011;9523;42.650;23.386;2023-02-28T09:19:56;26.63;;;12.63;;
18789;SDS011;9523;42.650;23.386;2023-02-28T09:22:23;24.80;;;13.63;;
18789;SDS011;9523;42.650;23.386;2023-02-28T09:24:50;27.60;;;13.63;;
18789;SDS011;9523;42.650;23.386;2023-02-28T09:27:17;25.40;;;13.13;;
18789;SDS011;9523;42.650;23.386;2023-02-28T09:29:44;23.73;;;13.20;;
18789;SDS011;9523;42.650;23.386;2023-02-28T09:32:11;27.07;;;14.07;;
18789;SDS011;9523;42.650;23.386;2023-02-28T09:34:41;24.50;;;13.03;;
18789;SDS011;9523;42.650;23.386;2023-02-28T09:37:08;32.70;;;14.30;;
18789;SDS011;9523;42.650;23.386;2023-02-28T09:39:35;28.07;;;13.07;;
18789;SDS011;9523;42.650;23.386;2023-02-28T09:42:02;27.40;;;13.50;;
18789;SDS011;9523;42.650;23.386;2023-02-28T09:44:30;27.20;;;13.87;;
18789;SDS011;9523;42.650;23.386;2023-02-28T09:47:04;22.50;;;12.30;;
18789;SDS011;9523;42.650;23.386;2023-02-28T09:49:38;24.10;;;13.10;;
18789;SDS011;9523;42.650;23.386;2023-02-28T09:52:12;22.80;;;12.30;;
18789;SDS011;9523;42.650;23.386;2023-02-28T09:54:41;21.97;;;12.57;;
18789;SDS011;9523;42.650;23.386;2023-02-28T09:57:14;24.53;;;12.77;;
18789;SDS011;9523;42.650;23.386;2023-02-28T09:59:53;24.27;;;11.93;;
18789;SDS011;9523;42.650;23.386;2023-02-28T10:02:46;26.27;;;12.27;;
18789;SDS011;9523;42.650;23.386;2023-02-28T10:05:25;23.17;;;11.40;;
18789;SDS011;9523;42.650;23.386;2023-02-28T10:08:08;18.83;;;12.37;;
18789;SDS011;9523;42.650;23.386;2023-02-28T10:10:40;19.90;;;12.73;;
18789;SDS011;9523;42.650;23.386;2023-02-28T10:13:20;28.67;;;14.57;;
18789;SDS011;9523;42.650;23.386;2023-02-28T10:15:51;21.07;;;11.97;;
18789;SDS011;9523;42.650;23.386;2023-02-28T10:18:23;25.20;;;12.80;;
18789;SDS011;9523;42.650;23.386;2023-02-28T10:20:56;24.73;;;11.43;;
18789;SDS011;9523;42.650;23.386;2023-02-28T10:23:25;21.37;;;11.17;;
18789;SDS011;9523;42.650;23.386;2023-02-28T10:25:55;31.73;;;12.13;;
18789;SDS011;9523;42.650;23.386;2023-02-28T10:28:25;21.17;;;11.90;;
18789;SDS011;9523;42.650;23.386;2023-02-28T10:30:59;21.30;;;10.93;;
18789;SDS011;9523;42.650;23.386;2023-02-28T10:33:28;23.37;;;10.80;;
18789;SDS011;9523;42.650;23.386;2023-02-28T10:35:57;18.77;;;10.33;;
18789;SDS011;9523;42.650;23.386;2023-02-28T10:38:25;18.47;;;11.17;;
18789;SDS011;9523;42.650;23.386;2023-02-28T10:41:02;19.37;;;10.27;;
18789;SDS011;9523;42.650;23.386;2023-02-28T10:43:31;23.13;;;10.97;;
18789;SDS011;9523;42.650;23.386;2023-02-28T10:45:59;26.23;;;12.50;;
18789;SDS011;9523;42.650;23.386;2023-02-28T10:48:30;25.57;;;13.97;;
18789;SDS011;9523;42.650;23.386;2023-02-28T10:51:04;40.50;;;19.20;;
18789;SDS011;9523;42.650;23.386;2023-02-28T10:53:34;30.10;;;16.57;;
18789;SDS011;9523;42.650;23.386;2023-02-28T10:56:06;41.73;;;20.47;;
18789;SDS011;9523;42.650;23.386;2023-02-28T10:58:44;32.13;;;15.90;;
18789;SDS011;9523;42.650;23.386;2023-02-28T11:01:14;35.70;;;17.23;;
18789;SDS011;9523;42.650;23.386;2023-02-28T11:03:42;31.60;;;15.40;;
18789;SDS011;9523;42.650;23.386;2023-02-28T11:06:14;22.77;;;12.93;;
18789;SDS011;9523;42.650;23.386;2023-02-28T11:08:44;28.80;;;14.27;;
18789;SDS011;9523;42.650;23.386;2023-02-28T11:11:14;23.40;;;12.57;;
18789;SDS011;9523;42.650;23.386;2023-02-28T11:13:43;30.83;;;15.50;;
18789;SDS011;9523;42.650;23.386;2023-02-28T11:16:12;23.43;;;11.50;;
18789;SDS011;9523;42.650;23.386;2023-02-28T11:18:41;37.37;;;19.23;;
18789;SDS011;9523;42.650;23.386;2023-02-28T11:21:18;26.17;;;14.20;;
18789;SDS011;9523;42.650;23.386;2023-02-28T11:23:49;26.80;;;14.33;;
18789;SDS011;9523;42.650;23.386;2023-02-28T11:29:10;19.50;;;11.00;;
18789;SDS011;9523;42.650;23.386;2023-02-28T11:32:00;21.77;;;11.03;;
18789;SDS011;9523;42.650;23.386;2023-02-28T11:34:29;100.20;;;46.67;;
18789;SDS011;9523;42.650;23.386;2023-02-28T11:36:59;70.00;;;33.10;;
18789;SDS011;9523;42.650;23.386;2023-02-28T11:39:30;103.47;;;47.67;;
18789;SDS011;9523;42.650;23.386;2023-02-28T11:42:12;58.70;;;30.03;;
18789;SDS011;9523;42.650;23.386;2023-02-28T11:44:53;88.33;;;42.37;;
18789;SDS011;9523;42.650;23.386;2023-02-28T11:47:31;51.80;;;25.57;;
18789;SDS011;9523;42.650;23.386;2023-02-28T11:52:54;81.37;;;40.17;;
18789;SDS011;9523;42.650;23.386;2023-02-28T11:55:24;43.80;;;23.77;;
18789;SDS011;9523;42.650;23.386;2023-02-28T11:58:00;51.53;;;28.43;;
18789;SDS011;9523;42.650;23.386;2023-02-28T12:00:47;61.83;;;32.63;;
18789;SDS011;9523;42.650;23.386;2023-02-28T12:03:26;30.10;;;16.03;;
18789;SDS011;9523;42.650;23.386;2023-02-28T12:06:01;26.07;;;15.63;;
18789;SDS011;9523;42.650;23.386;2023-02-28T12:08:47;30.13;;;14.93;;
18789;SDS011;9523;42.650;23.386;2023-02-28T12:11:24;32.37;;;14.07;;
18789;SDS011;9523;42.650;23.386;2023-02-28T12:14:12;25.63;;;12.60;;
18789;SDS011;9523;42.650;23.386;2023-02-28T12:16:54;24.93;;;12.83;;
18789;SDS011;9523;42.650;23.386;2023-02-28T12:19:28;22.33;;;12.43;;
18789;SDS011;9523;42.650;23.386;2023-02-28T12:22:22;19.50;;;11.17;;
18789;SDS011;9523;42.650;23.386;2023-02-28T12:27:58;18.97;;;10.53;;
18789;SDS011;9523;42.650;23.386;2023-02-28T12:30:27;23.03;;;11.83;;
18789;SDS011;9523;42.650;23.386;2023-02-28T12:33:00;20.20;;;11.67;;
18789;SDS011;9523;42.650;23.386;2023-02-28T12:35:32;20.53;;;11.57;;
18789;SDS011;9523;42.650;23.386;2023-02-28T12:38:04;21.03;;;11.33;;
18789;SDS011;9523;42.650;23.386;2023-02-28T12:40:42;19.67;;;11.17;;
18789;SDS011;9523;42.650;23.386;2023-02-28T12:43:12;21.47;;;10.73;;
18789;SDS011;9523;42.650;23.386;2023-02-28T12:45:42;18.53;;;11.00;;
18789;SDS011;9523;42.650;23.386;2023-02-28T12:48:14;24.43;;;10.93;;
18789;SDS011;9523;42.650;23.386;2023-02-28T12:50:46;20.77;;;10.07;;
18789;SDS011;9523;42.650;23.386;2023-02-28T12:53:15;21.77;;;11.27;;
18789;SDS011;9523;42.650;23.386;2023-02-28T12:55:54;22.30;;;12.33;;
18789;SDS011;9523;42.650;23.386;2023-02-28T12:58:31;23.50;;;11.47;;
18789;SDS011;9523;42.650;23.386;2023-02-28T13:01:11;26.30;;;10.73;;
18789;SDS011;9523;42.650;23.386;2023-02-28T13:06:59;22.33;;;11.20;;
18789;SDS011;9523;42.650;23.386;2023-02-28T13:09:40;24.00;;;11.80;;
18789;SDS011;9523;42.650;23.386;2023-02-28T13:12:13;19.63;;;10.93;;
18789;SDS011;9523;42.650;23.386;2023-02-28T13:14:42;25.20;;;11.53;;
18789;SDS011;9523;42.650;23.386;2023-02-28T13:17:12;21.07;;;10.73;;
18789;SDS011;9523;42.650;23.386;2023-02-28T13:19:46;22.67;;;10.73;;
18789;SDS011;9523;42.650;23.386;2023-02-28T13:32:08;20.07;;;10.10;;
18789;SDS011;9523;42.650;23.386;2023-02-28T13:34:39;19.10;;;9.73;;
18789;SDS011;9523;42.650;23.386;2023-02-28T13:40:06;22.37;;;9.90;;
18789;SDS011;9523;42.650;23.386;2023-02-28T13:42:48;17.47;;;9.60;;
18789;SDS011;9523;42.650;23.386;2023-02-28T13:45:20;19.17;;;9.40;;
18789;SDS011;9523;42.650;23.386;2023-02-28T13:47:55;15.13;;;8.93;;
18789;SDS011;9523;42.650;23.386;2023-02-28T13:50:29;21.07;;;10.07;;
18789;SDS011;9523;42.650;23.386;2023-02-28T13:56:07;20.37;;;9.60;;
18789;SDS011;9523;42.650;23.386;2023-02-28T13:58:48;19.63;;;9.17;;
18789;SDS011;9523;42.650;23.386;2023-02-28T14:01:27;18.40;;;9.37;;
18789;SDS011;9523;42.650;23.386;2023-02-28T14:07:22;17.00;;;8.40;;
18789;SDS011;9523;42.650;23.386;2023-02-28T14:09:57;23.77;;;10.83;;
18789;SDS011;9523;42.650;23.386;2023-02-28T14:15:39;21.33;;;10.37;;
18789;SDS011;9523;42.650;23.386;2023-02-28T14:18:21;18.70;;;9.23;;
18789;SDS011;9523;42.650;23.386;2023-02-28T14:21:09;22.33;;;10.10;;
18789;SDS011;9523;42.650;23.386;2023-02-28T14:23:52;24.03;;;10.57;;
18789;SDS011;9523;42.650;23.386;2023-02-28T14:26:55;18.87;;;8.93;;
18789;SDS011;9523;42.650;23.386;2023-02-28T14:29:38;25.40;;;11.17;;
18789;SDS011;9523;42.650;23.386;2023-02-28T14:32:25;23.07;;;9.80;;
18789;SDS011;9523;42.650;23.386;2023-02-28T14:35:00;24.17;;;10.30;;
18789;SDS011;9523;42.650;23.386;2023-02-28T14:37:41;19.23;;;10.60;;
18789;SDS011;9523;42.650;23.386;2023-02-28T14:40:13;19.20;;;9.53;;
18789;SDS011;9523;42.650;23.386;2023-02-28T14:42:46;98.93;;;41.63;;
18789;SDS011;9523;42.650;23.386;2023-02-28T14:45:18;92.07;;;39.83;;
18789;SDS011;9523;42.650;23.386;2023-02-28T14:47:46;22.47;;;11.07;;
18789;SDS011;9523;42.650;23.386;2023-02-28T14:50:17;17.50;;;9.30;;
18789;SDS011;9523;42.650;23.386;2023-02-28T14:52:45;25.37;;;9.73;;
18789;SDS011;9523;42.650;23.386;2023-02-28T14:55:14;23.30;;;10.37;;
18789;SDS011;9523;42.650;23.386;2023-02-28T14:57:50;22.80;;;9.53;;
18789;SDS011;9523;42.650;23.386;2023-02-28T15:00:20;19.57;;;9.63;;
18789;SDS011;9523;42.650;23.386;2023-02-28T15:02:49;21.97;;;9.77;;
18789;SDS011;9523;42.650;23.386;2023-02-28T15:05:19;24.53;;;10.27;;
18789;SDS011;9523;42.650;23.386;2023-02-28T15:08:00;24.77;;;9.67;;
18789;SDS011;9523;42.650;23.386;2023-02-28T15:10:30;22.33;;;9.80;;
18789;SDS011;9523;42.650;23.386;2023-02-28T15:12:58;16.33;;;8.20;;
18789;SDS011;9523;42.650;23.386;2023-02-28T15:15:28;15.37;;;7.93;;
18789;SDS011;9523;42.650;23.386;2023-02-28T15:18:07;15.10;;;7.60;;
18789;SDS011;9523;42.650;23.386;2023-02-28T15:20:45;12.63;;;6.87;;
18789;SDS011;9523;42.650;23.386;2023-02-28T15:23:12;12.57;;;7.27;;
18789;SDS011;9523;42.650;23.386;2023-02-28T15:25:42;15.60;;;7.97;;
18789;SDS011;9523;42.650;23.386;2023-02-28T15:28:11;14.80;;;7.47;;